createdAt,value
2019-04-28T00:01:35.837Z,96.10
2019-04-28T00:03:37.225Z,96.00
2019-04-28T00:05:38.765Z,96.00
2019-04-28T00:07:41.118Z,96.00
2019-04-28T00:09:42.531Z,96.10
2019-04-28T00:11:43.869Z,96.00
2019-04-28T00:13:45.258Z,96.10
2019-04-28T00:15:46.538Z,96.10
2019-04-28T00:17:47.797Z,96.10
2019-04-28T00:19:49.061Z,96.00
2019-04-28T00:21:58.121Z,96.00
2019-04-28T00:24:11.433Z,95.80
2019-04-28T00:26:31.058Z,95.90
2019-04-28T00:28:33.557Z,95.80
2019-04-28T00:30:35.045Z,95.70
2019-04-28T00:32:39.382Z,95.70
2019-04-28T00:34:41.371Z,95.80
2019-04-28T00:36:44.686Z,95.70
2019-04-28T00:38:45.986Z,95.80
2019-04-28T00:40:47.402Z,95.80
2019-04-28T00:42:48.942Z,96.00
2019-04-28T00:44:51.520Z,95.90
2019-04-28T00:46:52.957Z,96.00
2019-04-28T00:48:54.318Z,96.00
2019-04-28T00:50:55.593Z,95.90
2019-04-28T00:52:58.342Z,95.70
2019-04-28T00:55:01.175Z,95.70
2019-04-28T00:57:02.765Z,95.80
2019-04-28T00:59:04.026Z,95.50
2019-04-28T01:01:11.358Z,95.20
2019-04-28T01:03:13.033Z,94.70
2019-04-28T01:05:14.306Z,94.30
2019-04-28T01:07:15.609Z,94.30
2019-04-28T01:09:17.083Z,94.60
2019-04-28T01:11:18.358Z,94.90
2019-04-28T01:13:21.451Z,95.00
2019-04-28T01:15:39.837Z,95.10
2019-04-28T01:17:43.010Z,95.20
2019-04-28T01:19:49.875Z,95.20
2019-04-28T01:22:10.255Z,95.30
2019-04-28T01:24:12.149Z,95.60
2019-04-28T01:26:13.422Z,95.80
2019-04-28T01:28:14.725Z,95.70
2019-04-28T01:30:20.263Z,95.80
2019-04-28T01:32:32.127Z,96.00
2019-04-28T01:34:33.413Z,96.20
2019-04-28T01:36:36.310Z,96.30
2019-04-28T01:38:37.594Z,96.40
2019-04-28T01:40:38.902Z,96.50
2019-04-28T01:42:41.283Z,96.60
2019-04-28T01:44:42.793Z,96.70
2019-04-28T01:46:44.065Z,96.80
2019-04-28T01:48:45.367Z,96.70
2019-04-28T01:50:46.829Z,96.50
2019-04-28T01:52:49.711Z,96.60
2019-04-28T01:54:51.869Z,96.60
2019-04-28T01:56:53.297Z,96.60
2019-04-28T01:58:54.715Z,96.70
2019-04-28T02:00:55.978Z,96.70
2019-04-28T02:02:57.657Z,96.60
2019-04-28T02:04:59.883Z,96.60
2019-04-28T02:07:01.480Z,96.70
2019-04-28T02:09:06.441Z,96.30
2019-04-28T02:11:10.105Z,96.70
2019-04-28T02:13:11.603Z,96.50
2019-04-28T02:15:12.961Z,96.60
2019-04-28T02:17:14.232Z,96.60
2019-04-28T02:19:15.746Z,96.70
2019-04-28T02:21:25.710Z,96.80
2019-04-28T02:23:29.910Z,96.80
2019-04-28T02:25:31.271Z,96.80
2019-04-28T02:27:32.654Z,96.90
2019-04-28T02:29:33.913Z,97.00
2019-04-28T02:31:35.219Z,96.90
2019-04-28T02:33:36.586Z,97.00
2019-04-28T02:35:38.166Z,97.10
2019-04-28T02:37:40.539Z,97.10
2019-04-28T02:39:42.338Z,97.20
2019-04-28T02:41:43.689Z,97.20
2019-04-28T02:43:45.235Z,97.20
2019-04-28T02:45:52.967Z,97.30
2019-04-28T02:47:53.345Z,97.30
2019-04-28T02:50:00.621Z,97.30
2019-04-28T02:52:20.659Z,97.30
2019-04-28T02:54:21.536Z,97.40
2019-04-28T02:56:22.802Z,97.40
2019-04-28T02:58:24.075Z,97.50
2019-04-28T03:00:25.365Z,97.40
2019-04-28T03:02:26.645Z,97.40
2019-04-28T03:04:30.719Z,97.40
2019-04-28T03:06:31.205Z,97.30
2019-04-28T03:08:32.487Z,97.30
2019-04-28T03:10:33.971Z,97.30
2019-04-28T03:12:35.330Z,97.40
2019-04-28T03:14:36.606Z,97.30
2019-04-28T03:16:40.781Z,97.30
2019-04-28T03:18:41.519Z,97.30
2019-04-28T03:20:42.957Z,97.30
2019-04-28T03:22:44.229Z,97.20
2019-04-28T03:24:47.289Z,97.20
2019-04-28T03:26:52.979Z,97.20
2019-04-28T03:29:01.028Z,97.20
2019-04-28T03:31:34.718Z,97.20
2019-04-28T03:33:17.056Z,97.20
2019-04-28T03:35:13.397Z,97.10
2019-04-28T03:37:14.984Z,97.10
2019-04-28T03:39:16.246Z,97.20
2019-04-28T03:41:17.547Z,97.00
2019-04-28T03:43:21.299Z,97.10
2019-04-28T03:45:23.886Z,97.00
2019-04-28T03:47:25.258Z,96.70
2019-04-28T03:49:33.710Z,96.90
2019-04-28T03:51:35.334Z,97.40
2019-04-28T03:53:44.558Z,97.00
2019-04-28T03:55:57.805Z,97.00
2019-04-28T03:58:15.020Z,97.00
2019-04-28T04:00:36.072Z,96.90
2019-04-28T04:02:46.768Z,97.10
2019-04-28T04:04:53.560Z,97.10
2019-04-28T04:07:04.817Z,97.00
2019-04-28T04:09:24.204Z,97.00
2019-04-28T04:11:52.153Z,97.00
2019-04-28T04:14:11.282Z,97.00
2019-04-28T04:16:27.286Z,97.00
2019-04-28T04:18:44.594Z,97.10
2019-04-28T04:21:00.846Z,97.00
2019-04-28T04:23:11.494Z,96.90
2019-04-28T04:25:13.671Z,97.00
2019-04-28T04:27:14.952Z,97.10
2019-04-28T04:29:16.545Z,96.90
2019-04-28T04:31:19.857Z,96.90
2019-04-28T04:33:21.092Z,96.80
2019-04-28T04:35:22.452Z,96.90
2019-04-28T04:37:23.728Z,96.90
2019-04-28T04:39:24.999Z,97.00
2019-04-28T04:41:26.352Z,96.90
2019-04-28T04:43:27.956Z,96.90
2019-04-28T04:45:30.525Z,96.80
2019-04-28T04:47:32.875Z,96.80
2019-04-28T04:49:34.580Z,96.70
2019-04-28T04:51:36.196Z,96.70
2019-04-28T04:53:37.753Z,96.70
2019-04-28T04:55:40.852Z,96.60
2019-04-28T04:57:42.166Z,96.50
2019-04-28T04:59:43.446Z,96.50
2019-04-28T05:01:46.650Z,96.40
2019-04-28T05:03:52.436Z,96.30
2019-04-28T05:05:53.703Z,96.30
2019-04-28T05:07:54.984Z,96.40
2019-04-28T05:09:56.267Z,96.30
2019-04-28T05:11:57.530Z,96.20
2019-04-28T05:13:59.660Z,96.10
2019-04-28T05:16:01.442Z,96.20
2019-04-28T05:18:03.297Z,96.30
2019-04-28T05:20:05.145Z,96.10
2019-04-28T05:22:06.918Z,96.10
2019-04-28T05:24:22.037Z,95.80
2019-04-28T05:26:24.805Z,95.70
2019-04-28T05:28:26.097Z,95.80
2019-04-28T05:30:29.277Z,95.70
2019-04-28T05:32:42.490Z,95.80
2019-04-28T05:34:34.123Z,95.90
2019-04-28T05:36:41.103Z,95.80
2019-04-28T05:38:40.485Z,95.80
2019-04-28T05:40:42.422Z,95.70
2019-04-28T05:42:45.681Z,95.80
2019-04-28T05:44:46.958Z,95.70
2019-04-28T05:46:50.369Z,95.50
2019-04-28T05:48:53.583Z,95.70
2019-04-28T05:50:56.846Z,95.60
2019-04-28T05:53:19.303Z,95.80
2019-04-28T05:55:26.375Z,95.60
2019-04-28T05:57:32.508Z,95.40
2019-04-28T05:59:50.712Z,95.50
2019-04-28T06:01:56.545Z,95.10
2019-04-28T06:03:57.844Z,95.30
2019-04-28T06:05:59.958Z,94.90
2019-04-28T06:08:23.861Z,95.10
2019-04-28T06:10:25.149Z,95.00
2019-04-28T06:12:26.717Z,94.90
2019-04-28T06:14:30.002Z,94.70
2019-04-28T06:16:31.584Z,94.70
2019-04-28T06:18:35.869Z,94.50
2019-04-28T06:20:37.498Z,94.60
2019-04-28T06:22:40.886Z,94.90
2019-04-28T06:24:42.445Z,93.90
2019-04-28T06:26:43.713Z,93.70
2019-04-28T06:28:45.031Z,94.00
2019-04-28T06:30:46.314Z,94.00
2019-04-28T06:32:47.592Z,94.60
2019-04-28T06:34:48.869Z,94.10
2019-04-28T06:36:50.205Z,93.80
2019-04-28T06:38:51.489Z,92.90
2019-04-28T06:40:52.801Z,92.40
2019-04-28T06:42:54.075Z,92.70
2019-04-28T06:44:55.412Z,92.80
2019-04-28T06:46:56.756Z,92.90
2019-04-28T06:48:58.057Z,92.00
2019-04-28T06:50:59.338Z,91.20
2019-04-28T06:53:02.908Z,92.10
2019-04-28T06:55:05.997Z,91.90
2019-04-28T06:57:07.263Z,91.90
2019-04-28T06:59:08.526Z,91.90
2019-04-28T07:01:09.822Z,91.60
2019-04-28T07:03:22.650Z,92.50
2019-04-28T07:05:14.353Z,91.70
2019-04-28T07:07:15.676Z,92.10
2019-04-28T07:09:17.044Z,91.80
2019-04-28T07:11:18.419Z,92.00
2019-04-28T07:13:20.735Z,92.00
2019-04-28T07:15:22.528Z,91.00
2019-04-28T07:17:23.747Z,91.40
2019-04-28T07:19:25.106Z,90.90
2019-04-28T07:21:37.061Z,91.00
2019-04-28T07:23:39.733Z,90.90
2019-04-28T07:25:41.019Z,90.90
2019-04-28T07:27:42.302Z,91.30
2019-04-28T07:29:43.576Z,90.90
2019-04-28T07:31:44.847Z,90.30
2019-04-28T07:33:46.117Z,90.10
2019-04-28T07:35:47.393Z,90.80
2019-04-28T07:37:48.645Z,90.40
2019-04-28T07:39:50.201Z,90.30
2019-04-28T07:41:51.477Z,89.00
2019-04-28T07:43:52.737Z,89.20
2019-04-28T07:45:54.012Z,89.50
2019-04-28T07:47:55.889Z,88.50
2019-04-28T07:49:57.169Z,88.40
2019-04-28T07:52:03.042Z,89.50
2019-04-28T07:54:12.320Z,87.80
2019-04-28T07:56:13.619Z,89.30
2019-04-28T07:58:14.881Z,90.30
2019-04-28T08:00:18.250Z,89.10
2019-04-28T08:02:19.925Z,88.20
2019-04-28T08:04:21.447Z,88.30
2019-04-28T08:06:22.809Z,89.10
2019-04-28T08:08:24.109Z,87.70
2019-04-28T08:10:25.428Z,87.40
2019-04-28T08:12:26.871Z,87.50
2019-04-28T08:14:28.124Z,87.70
2019-04-28T08:16:29.625Z,88.10
2019-04-28T08:18:32.051Z,85.70
2019-04-28T08:20:33.889Z,86.10
2019-04-28T08:22:35.045Z,85.30
2019-04-28T08:24:36.398Z,84.50
2019-04-28T08:26:37.595Z,85.10
2019-04-28T08:28:38.756Z,82.80
2019-04-28T08:30:39.972Z,83.00
2019-04-28T08:32:43.125Z,84.60
2019-04-28T08:34:44.293Z,83.00
2019-04-28T08:36:45.465Z,81.40
2019-04-28T08:38:46.605Z,80.80
2019-04-28T08:40:47.794Z,81.90
2019-04-28T08:42:49.030Z,83.70
2019-04-28T08:44:50.613Z,83.00
2019-04-28T08:46:51.945Z,83.80
2019-04-28T08:48:53.237Z,84.60
2019-04-28T08:50:54.560Z,84.30
2019-04-28T08:52:55.914Z,82.70
2019-04-28T08:54:57.174Z,81.20
2019-04-28T08:56:58.441Z,81.20
2019-04-28T08:58:59.744Z,82.70
2019-04-28T09:01:00.937Z,83.60
2019-04-28T09:03:02.117Z,83.40
2019-04-28T09:05:03.891Z,82.30
2019-04-28T09:07:05.047Z,81.50
2019-04-28T09:09:08.214Z,81.10
2019-04-28T09:11:09.880Z,82.40
2019-04-28T09:13:11.025Z,84.60
2019-04-28T09:15:12.177Z,83.90
2019-04-28T09:17:13.328Z,77.70
2019-04-28T09:19:14.485Z,81.70
2019-04-28T09:21:15.730Z,82.20
2019-04-28T09:23:16.877Z,85.60
2019-04-28T09:27:13.335Z,84.20
2019-04-28T09:29:14.584Z,83.80
2019-04-28T09:31:15.802Z,81.10
2019-04-28T09:33:17.029Z,80.90
2019-04-28T09:35:18.234Z,80.30
2019-04-28T09:37:19.418Z,84.90
2019-04-28T09:39:23.558Z,82.20
2019-04-28T09:41:25.070Z,84.70
2019-04-28T09:43:51.755Z,86.10
2019-04-28T09:46:03.446Z,88.70
2019-04-28T09:48:17.917Z,86.60
2019-04-28T09:50:33.706Z,84.20
2019-04-28T09:52:41.781Z,81.90
2019-04-28T09:55:04.245Z,81.80
2019-04-28T09:57:17.426Z,77.90
2019-04-28T09:59:53.496Z,77.70
2019-04-28T10:01:43.181Z,77.60
2019-04-28T10:03:54.013Z,76.70
2019-04-28T10:06:17.628Z,76.10
2019-04-28T10:08:28.992Z,71.60
2019-04-28T10:10:43.791Z,72.30
2019-04-28T10:12:57.092Z,74.90
2019-04-28T10:15:13.508Z,77.20
2019-04-28T10:17:17.573Z,78.00
2019-04-28T10:19:27.195Z,82.40
2019-04-28T10:21:37.226Z,77.50
2019-04-28T10:23:58.061Z,77.30
2019-04-28T10:26:06.940Z,76.90
2019-04-28T10:28:20.019Z,79.10
2019-04-28T10:30:37.434Z,77.90
2019-04-28T10:32:44.659Z,76.70
2019-04-28T10:34:55.193Z,78.00
2019-04-28T10:39:26.882Z,78.10
2019-04-28T10:41:41.296Z,81.70
2019-04-28T10:43:50.082Z,81.00
2019-04-28T10:45:56.302Z,79.50
2019-04-28T10:48:06.601Z,72.50
2019-04-28T10:50:26.439Z,75.80
2019-04-28T10:55:11.187Z,74.00
2019-04-28T11:05:19.245Z,65.70
2019-04-28T11:11:02.130Z,60.80
2019-04-28T11:12:20.287Z,64.10
2019-04-28T11:14:26.774Z,66.70
2019-04-28T11:16:43.602Z,65.30
2019-04-28T11:18:56.170Z,66.90
2019-04-28T11:21:02.536Z,67.20
2019-04-28T11:23:07.255Z,63.40
2019-04-28T11:25:21.186Z,64.90
2019-04-28T11:27:31.449Z,63.40
2019-04-28T11:29:49.074Z,63.70
2019-04-28T11:32:03.054Z,62.60
2019-04-28T11:34:12.680Z,59.80
2019-04-28T11:36:19.902Z,61.70
2019-04-28T11:38:29.909Z,63.70
2019-04-28T11:40:42.301Z,62.20
2019-04-28T11:43:00.963Z,64.10
2019-04-28T11:45:09.991Z,65.80
2019-04-28T11:47:16.142Z,66.60
2019-04-28T11:49:21.988Z,65.90
2019-04-28T11:51:27.629Z,66.50
2019-04-28T11:53:34.414Z,66.20
2019-04-28T11:55:36.877Z,70.30
2019-04-28T11:57:40.683Z,69.20
2019-04-28T11:59:49.671Z,72.00
2019-04-28T12:01:54.079Z,71.20
2019-04-28T12:04:05.602Z,71.40
2019-04-28T12:06:14.180Z,72.60
2019-04-28T12:08:23.764Z,71.50
2019-04-28T12:10:39.104Z,72.20
2019-04-28T12:13:06.421Z,72.30
2019-04-28T12:15:20.498Z,74.90
2019-04-28T12:17:33.753Z,76.50
2019-04-28T12:19:43.934Z,75.30
2019-04-28T12:21:55.862Z,75.60
2019-04-28T12:24:00.424Z,77.90
2019-04-28T12:26:11.813Z,81.10
2019-04-28T12:28:19.878Z,82.20
2019-04-28T12:30:23.917Z,78.00
2019-04-28T12:32:31.159Z,80.10
2019-04-28T12:34:42.236Z,78.30
2019-04-28T12:36:50.682Z,74.30
2019-04-28T12:39:05.324Z,75.40
2019-04-28T12:41:27.794Z,75.60
2019-04-28T12:46:09.154Z,71.70
2019-04-28T12:48:13.467Z,71.10
2019-04-28T12:50:24.194Z,74.40
2019-04-28T12:52:25.604Z,71.70
2019-04-28T12:54:28.717Z,72.90
2019-04-28T12:56:29.933Z,70.80
2019-04-28T12:58:31.114Z,64.90
2019-04-28T13:00:42.985Z,67.60
2019-04-28T13:03:02.616Z,70.40
2019-04-28T13:05:05.934Z,69.20
2019-04-28T13:07:07.998Z,70.40
2019-04-28T13:09:09.298Z,67.80
2019-04-28T13:11:12.416Z,67.10
2019-04-28T13:13:13.574Z,66.90
2019-04-28T13:15:14.717Z,63.60
2019-04-28T13:17:16.334Z,64.20
2019-04-28T13:19:17.560Z,61.80
2019-04-28T13:21:18.990Z,63.90
2019-04-28T13:23:20.529Z,62.20
2019-04-28T13:25:21.790Z,64.10
2019-04-28T13:27:23.086Z,60.20
2019-04-28T13:29:24.258Z,62.00
2019-04-28T13:31:25.416Z,62.80
2019-04-28T13:33:26.610Z,61.90
2019-04-28T13:35:27.768Z,63.60
2019-04-28T13:37:29.072Z,63.00
2019-04-28T13:39:37.236Z,62.20
2019-04-28T13:41:38.410Z,59.30
2019-04-28T13:43:39.603Z,63.50
2019-04-28T13:45:41.831Z,67.10
2019-04-28T13:47:42.969Z,67.70
2019-04-28T13:49:54.954Z,74.60
2019-04-28T13:51:59.307Z,70.90
2019-04-28T13:54:02.453Z,73.30
2019-04-28T13:56:03.938Z,70.10
2019-04-28T13:58:05.222Z,65.70
2019-04-28T14:00:14.549Z,58.70
2019-04-28T14:02:17.755Z,60.00
2019-04-28T14:04:20.838Z,56.80
2019-04-28T14:06:28.893Z,58.70
2019-04-28T14:08:30.415Z,57.20
2019-04-28T14:10:31.574Z,55.60
2019-04-28T14:12:32.863Z,61.90
2019-04-28T14:14:34.079Z,59.70
2019-04-28T14:16:37.244Z,54.50
2019-04-28T14:18:38.328Z,52.90
2019-04-28T14:20:39.845Z,52.10
2019-04-28T14:22:41.063Z,53.50
2019-04-28T14:24:42.296Z,50.80
2019-04-28T14:26:43.701Z,55.80
2019-04-28T14:28:45.010Z,57.00
2019-04-28T14:30:46.345Z,59.00
2019-04-28T14:32:47.493Z,55.70
2019-04-28T14:34:48.792Z,52.10
2019-04-28T14:36:50.163Z,47.50
2019-04-28T14:38:51.633Z,51.10
2019-04-28T14:40:52.969Z,48.00
2019-04-28T14:42:54.217Z,42.70
2019-04-28T14:44:55.645Z,51.70
2019-04-28T14:46:57.122Z,43.70
2019-04-28T14:48:58.709Z,50.40
2019-04-28T14:51:00.087Z,44.20
2019-04-28T14:53:01.225Z,47.20
2019-04-28T14:55:03.973Z,55.70
2019-04-28T14:57:05.121Z,50.10
2019-04-28T14:59:06.374Z,46.90
2019-04-28T15:01:09.714Z,49.10
2019-04-28T15:03:15.420Z,47.30
2019-04-28T15:05:24.639Z,52.90
2019-04-28T15:07:36.553Z,51.50
2019-04-28T15:09:56.398Z,47.00
2019-04-28T15:11:59.580Z,44.80
2019-04-28T15:14:00.778Z,48.30
2019-04-28T15:16:01.982Z,48.50
2019-04-28T15:18:03.737Z,46.00
2019-04-28T15:20:05.063Z,45.50
2019-04-28T15:22:06.337Z,43.60
2019-04-28T15:24:07.599Z,36.70
2019-04-28T15:26:10.271Z,38.50
2019-04-28T15:28:11.477Z,45.60
2019-04-28T15:30:12.761Z,48.40
2019-04-28T15:32:13.926Z,48.10
2019-04-28T15:34:15.081Z,46.00
2019-04-28T15:36:16.269Z,45.30
2019-04-28T15:38:18.289Z,42.80
2019-04-28T15:40:19.790Z,42.80
2019-04-28T15:42:20.944Z,41.10
2019-04-28T15:44:22.102Z,40.90
2019-04-28T15:46:23.254Z,40.80
2019-04-28T15:48:24.398Z,38.60
2019-04-28T15:50:25.568Z,36.30
2019-04-28T15:52:27.913Z,37.30
2019-04-28T15:54:29.401Z,35.30
2019-04-28T15:56:32.466Z,37.90
2019-04-28T15:58:35.833Z,33.30
2019-04-28T16:00:37.039Z,38.80
2019-04-28T16:02:38.281Z,40.80
2019-04-28T16:04:39.574Z,36.10
2019-04-28T16:06:43.057Z,35.20
2019-04-28T16:08:44.401Z,40.80
2019-04-28T16:10:45.564Z,41.70
2019-04-28T16:12:47.191Z,41.20
2019-04-28T16:14:48.782Z,40.00
2019-04-28T16:16:50.225Z,38.50
2019-04-28T16:18:51.377Z,38.00
2019-04-28T16:20:52.791Z,37.40
2019-04-28T16:22:53.941Z,35.90
2019-04-28T16:24:55.374Z,37.60
2019-04-28T16:26:56.529Z,35.70
2019-04-28T16:28:57.681Z,34.50
2019-04-28T16:30:58.941Z,35.70
2019-04-28T16:33:00.137Z,33.20
2019-04-28T16:35:01.309Z,36.80
2019-04-28T16:37:02.853Z,38.00
2019-04-28T16:39:05.009Z,33.90
2019-04-28T16:41:08.049Z,38.80
2019-04-28T16:43:09.217Z,36.10
2019-04-28T16:45:10.375Z,36.90
2019-04-28T16:47:11.551Z,37.50
2019-04-28T16:49:12.739Z,36.10
2019-04-28T16:51:14.704Z,35.40
2019-04-28T16:53:16.144Z,36.90
2019-04-28T16:55:19.201Z,35.70
2019-04-28T16:57:40.507Z,33.50
2019-04-28T16:59:43.602Z,36.70
2019-04-28T17:01:58.761Z,33.60
2019-04-28T17:04:00.026Z,40.20
2019-04-28T17:06:01.189Z,43.40
2019-04-28T17:08:02.430Z,41.10
2019-04-28T17:10:04.733Z,35.20
2019-04-28T17:12:09.478Z,40.90
2019-04-28T17:14:10.980Z,45.60
2019-04-28T17:16:12.209Z,43.90
2019-04-28T17:18:13.474Z,40.00
2019-04-28T17:20:15.044Z,49.10
2019-04-28T17:22:16.499Z,49.40
2019-04-28T17:24:17.672Z,49.60
2019-04-28T17:26:19.075Z,49.90
2019-04-28T17:28:20.308Z,49.80
2019-04-28T17:30:22.175Z,49.70
2019-04-28T17:32:23.374Z,50.50
2019-04-28T17:34:24.615Z,50.60
2019-04-28T17:36:25.803Z,50.70
2019-04-28T17:38:26.988Z,51.20
2019-04-28T17:40:28.248Z,51.30
2019-04-28T17:42:29.429Z,51.20
2019-04-28T17:44:30.692Z,51.70
2019-04-28T17:46:31.976Z,51.80
2019-04-28T17:48:46.861Z,51.70
2019-04-28T17:50:48.021Z,51.70
2019-04-28T17:52:49.218Z,52.20
2019-04-28T17:54:50.385Z,52.80
2019-04-28T17:56:52.074Z,53.10
2019-04-28T17:58:53.351Z,53.10
2019-04-28T18:00:56.534Z,54.10
2019-04-28T18:02:59.594Z,54.00
2019-04-28T18:05:05.481Z,54.30
2019-04-28T18:07:08.769Z,54.90
2019-04-28T18:09:12.276Z,55.40
2019-04-28T18:11:13.525Z,55.90
2019-04-28T18:13:14.778Z,55.90
2019-04-28T18:15:18.249Z,56.10
2019-04-28T18:17:38.077Z,56.50
2019-04-28T18:19:39.353Z,56.20
2019-04-28T18:21:40.709Z,56.50
2019-04-28T18:23:42.084Z,56.90
2019-04-28T18:25:43.342Z,57.10
2019-04-28T18:27:44.509Z,56.40
2019-04-28T18:29:45.739Z,53.50
2019-04-28T18:31:51.881Z,58.10
2019-04-28T18:34:07.135Z,59.30
2019-04-28T18:36:10.237Z,60.10
2019-04-28T18:38:13.357Z,64.60
2019-04-28T18:40:19.034Z,67.00
2019-04-28T18:42:24.758Z,68.60
2019-04-28T18:44:26.250Z,70.00
2019-04-28T18:46:29.018Z,70.50
2019-04-28T18:48:30.165Z,72.10
2019-04-28T18:50:32.400Z,70.80
2019-04-28T18:52:33.848Z,69.70
2019-04-28T18:54:35.025Z,68.30
2019-04-28T18:56:36.170Z,67.90
2019-04-28T18:58:37.326Z,66.70
2019-04-28T19:00:40.494Z,67.90
2019-04-28T19:02:43.586Z,67.70
2019-04-28T19:04:44.733Z,67.00
2019-04-28T19:06:45.905Z,66.70
2019-04-28T19:08:49.672Z,66.60
2019-04-28T19:10:52.835Z,65.90
2019-04-28T19:12:59.181Z,66.40
2019-04-28T19:15:04.928Z,66.30
2019-04-28T19:17:25.275Z,66.60
2019-04-28T19:19:28.492Z,66.70
2019-04-28T19:21:29.717Z,67.10
2019-04-28T19:23:30.869Z,67.20
2019-04-28T19:25:35.153Z,67.40
2019-04-28T19:27:36.882Z,68.00
2019-04-28T19:29:39.525Z,67.80
2019-04-28T19:31:40.666Z,67.50
2019-04-28T19:33:41.878Z,67.40
2019-04-28T19:35:43.138Z,67.40
2019-04-28T19:37:44.472Z,67.40
2019-04-28T19:39:48.012Z,67.60
2019-04-28T19:41:49.214Z,68.00
2019-04-28T19:43:50.772Z,67.70
2019-04-28T19:45:53.995Z,68.00
2019-04-28T19:47:55.262Z,68.20
2019-04-28T19:49:56.580Z,68.30
2019-04-28T19:51:58.026Z,68.90
2019-04-28T19:53:59.853Z,68.70
2019-04-28T19:56:12.192Z,68.60
2019-04-28T19:58:18.167Z,68.80
2019-04-28T20:00:27.256Z,68.80
2019-04-28T20:02:30.310Z,68.70
2019-04-28T20:04:31.597Z,69.00
2019-04-28T20:06:32.857Z,69.40
2019-04-28T20:08:34.135Z,69.50
2019-04-28T20:10:35.586Z,69.90
2019-04-28T20:12:37.046Z,69.60
2019-04-28T20:14:38.322Z,69.80
2019-04-28T20:16:39.578Z,70.00
2019-04-28T20:18:40.933Z,70.00
2019-04-28T20:20:42.621Z,70.10
2019-04-28T20:22:44.072Z,70.10
2019-04-28T20:24:47.333Z,70.20
2019-04-28T20:26:48.639Z,71.00
2019-04-28T20:28:50.050Z,71.60
2019-04-28T20:30:51.397Z,71.60
2019-04-28T20:33:06.146Z,71.50
2019-04-28T20:34:56.180Z,71.20
2019-04-28T20:36:59.418Z,71.00
2019-04-28T20:39:02.946Z,71.40
2019-04-28T20:41:08.035Z,72.20
2019-04-28T20:43:11.554Z,72.70
2019-04-28T20:45:14.740Z,73.10
2019-04-28T20:47:16.161Z,73.20
2019-04-28T20:49:17.438Z,73.20
2019-04-28T20:51:18.828Z,73.80
2019-04-28T20:53:20.114Z,73.60
2019-04-28T20:55:21.461Z,73.30
2019-04-28T20:57:22.732Z,73.60
2019-04-28T20:59:24.129Z,73.50
2019-04-28T21:01:25.413Z,73.20
2019-04-28T21:03:27.112Z,73.20
2019-04-28T21:05:28.269Z,73.70
2019-04-28T21:07:29.826Z,74.70
2019-04-28T21:09:31.170Z,75.40
2019-04-28T21:11:32.445Z,75.50
2019-04-28T21:13:33.781Z,76.00
2019-04-28T21:15:35.062Z,75.90
2019-04-28T21:17:36.337Z,75.50
2019-04-28T21:19:37.602Z,75.40
2019-04-28T21:21:38.884Z,75.50
2019-04-28T21:23:40.253Z,75.40
2019-04-28T21:25:41.533Z,75.20
2019-04-28T21:27:42.797Z,75.40
2019-04-28T21:29:44.073Z,75.40
2019-04-28T21:31:45.650Z,75.30
2019-04-28T21:33:46.925Z,75.50
2019-04-28T21:35:48.231Z,76.30
2019-04-28T21:37:49.565Z,76.60
2019-04-28T21:39:50.829Z,77.10
2019-04-28T21:41:52.371Z,77.70
2019-04-28T21:43:58.151Z,77.70
2019-04-28T21:46:12.201Z,77.50
2019-04-28T21:48:15.375Z,77.20
2019-04-28T21:50:16.641Z,77.20
2019-04-28T21:52:17.897Z,77.70
2019-04-28T21:54:19.169Z,78.20
2019-04-28T21:56:20.446Z,77.80
2019-04-28T21:58:32.527Z,77.90
2019-04-28T22:00:33.166Z,77.50
2019-04-28T22:02:52.933Z,77.30
2019-04-28T22:04:54.565Z,77.30
2019-04-28T22:06:56.139Z,77.10
2019-04-28T22:08:57.531Z,77.20
2019-04-28T22:10:58.813Z,78.00
2019-04-28T22:13:00.357Z,78.30
2019-04-28T22:15:01.909Z,78.20
2019-04-28T22:17:04.403Z,78.00
2019-04-28T22:19:05.923Z,77.70
2019-04-28T22:21:07.198Z,77.70
2019-04-28T22:23:18.686Z,77.60
2019-04-28T22:25:24.715Z,77.70
2019-04-28T22:27:28.183Z,77.90
2019-04-28T22:29:29.540Z,77.70
2019-04-28T22:31:30.834Z,77.70
2019-04-28T22:33:32.123Z,77.50
2019-04-28T22:35:33.417Z,77.70
2019-04-28T22:37:34.901Z,77.90
2019-04-28T22:39:36.413Z,77.80
2019-04-28T22:41:39.593Z,78.20
2019-04-28T22:43:41.146Z,78.40
2019-04-28T22:45:42.754Z,78.30
2019-04-28T22:47:44.014Z,78.20
2019-04-28T22:49:45.282Z,78.20
2019-04-28T22:51:46.894Z,77.90
2019-04-28T22:53:48.434Z,77.70
2019-04-28T22:55:51.933Z,77.90
2019-04-28T22:58:03.969Z,78.00
2019-04-28T23:00:10.809Z,78.20
2019-04-28T23:02:15.881Z,78.30
2019-04-28T23:04:20.157Z,78.30
2019-04-28T23:06:21.429Z,78.30
2019-04-28T23:08:22.685Z,78.30
2019-04-28T23:10:24.370Z,78.10
2019-04-28T23:12:25.829Z,78.30
2019-04-28T23:14:27.408Z,78.70
2019-04-28T23:16:29.033Z,78.60
2019-04-28T23:18:30.289Z,78.60
2019-04-28T23:20:33.901Z,78.60
2019-04-28T23:22:46.857Z,78.50
2019-04-28T23:24:40.561Z,78.50
2019-04-28T23:26:41.834Z,78.60
2019-04-28T23:28:44.094Z,78.80
2019-04-28T23:30:46.163Z,79.10
2019-04-28T23:32:47.438Z,79.30
2019-04-28T23:34:49.019Z,79.50
2019-04-28T23:36:51.463Z,79.50
2019-04-28T23:38:52.719Z,80.20
2019-04-28T23:40:58.433Z,80.50
2019-04-28T23:43:10.237Z,81.20
2019-04-28T23:45:12.715Z,81.20
2019-04-28T23:47:14.159Z,81.20
2019-04-28T23:49:15.528Z,81.10
2019-04-28T23:51:18.901Z,81.40
2019-04-28T23:53:38.925Z,82.00
2019-04-28T23:55:40.185Z,81.60
2019-04-28T23:57:41.505Z,81.40
2019-04-28T23:59:42.785Z,81.40
